createdAt,value
2019-05-22T00:01:39.074Z,52.60
2019-05-22T00:04:13.087Z,52.15
2019-05-22T00:06:45.311Z,50.83
2019-05-22T00:09:23.949Z,54.67
2019-05-22T00:11:56.574Z,51.18
2019-05-22T00:14:27.591Z,52.15
2019-05-22T00:17:01.120Z,51.73
2019-05-22T00:19:30.683Z,51.50
2019-05-22T00:22:01.779Z,50.40
2019-05-22T00:24:33.512Z,50.20
2019-05-22T00:27:05.029Z,50.60
2019-05-22T00:29:35.624Z,50.20
2019-05-22T00:32:05.205Z,51.90
2019-05-22T00:34:36.175Z,53.83
2019-05-22T00:37:06.142Z,53.13
2019-05-22T00:39:35.522Z,53.60
2019-05-22T00:42:06.832Z,52.55
2019-05-22T00:44:37.475Z,51.65
2019-05-22T00:47:08.564Z,51.92
2019-05-22T00:49:40.437Z,52.15
2019-05-22T00:52:23.910Z,50.90
2019-05-22T00:54:55.340Z,49.30
2019-05-22T00:57:44.606Z,49.03
2019-05-22T01:00:20.232Z,48.90
2019-05-22T01:02:53.739Z,50.65
2019-05-22T01:05:27.621Z,50.03
2019-05-22T01:07:57.454Z,51.95
2019-05-22T01:10:29.547Z,50.80
2019-05-22T01:13:01.852Z,52.20
2019-05-22T01:15:32.749Z,52.03
2019-05-22T01:18:08.205Z,52.60
2019-05-22T01:20:40.543Z,51.05
2019-05-22T01:23:13.293Z,52.38
2019-05-22T01:25:43.009Z,52.65
2019-05-22T01:28:14.136Z,52.20
2019-05-22T01:30:45.880Z,52.35
2019-05-22T01:33:23.047Z,55.60
2019-05-22T01:36:03.447Z,55.17
2019-05-22T01:38:34.621Z,53.08
2019-05-22T01:41:29.570Z,53.98
2019-05-22T01:44:03.236Z,51.95
2019-05-22T01:46:34.378Z,50.25
2019-05-22T01:49:04.190Z,46.92
2019-05-22T01:51:34.187Z,44.03
2019-05-22T01:54:04.019Z,46.28
2019-05-22T01:56:35.138Z,49.13
2019-05-22T01:59:04.850Z,51.92
2019-05-22T02:01:35.420Z,49.42
2019-05-22T02:04:06.080Z,52.73
2019-05-22T02:06:36.945Z,50.35
2019-05-22T02:09:14.072Z,51.68
2019-05-22T02:11:46.118Z,51.68
2019-05-22T02:14:17.464Z,53.23
2019-05-22T02:16:56.804Z,54.60
2019-05-22T02:19:20.705Z,55.48
2019-05-22T02:21:50.232Z,54.25
2019-05-22T02:24:19.832Z,53.10
2019-05-22T02:26:50.120Z,53.30
2019-05-22T02:29:21.328Z,52.58
2019-05-22T02:31:55.141Z,49.27
2019-05-22T02:34:22.639Z,52.03
2019-05-22T02:36:53.667Z,46.83
2019-05-22T02:39:25.042Z,43.73
2019-05-22T02:41:58.708Z,44.08
2019-05-22T02:44:29.684Z,48.13
2019-05-22T02:47:16.699Z,45.20
2019-05-22T02:49:33.770Z,48.52
2019-05-22T02:52:06.652Z,46.10
2019-05-22T02:54:36.603Z,45.78
2019-05-22T02:57:09.627Z,46.63
2019-05-22T02:59:42.239Z,48.90
2019-05-22T03:02:14.077Z,47.67
2019-05-22T03:04:53.558Z,48.65
2019-05-22T03:07:26.620Z,47.38
2019-05-22T03:09:56.841Z,49.13
2019-05-22T03:12:28.570Z,50.40
2019-05-22T03:14:58.446Z,50.63
2019-05-22T03:17:31.683Z,52.13
2019-05-22T03:20:05.833Z,55.75
2019-05-22T03:22:57.042Z,55.08
2019-05-22T03:25:28.102Z,54.23
2019-05-22T03:27:57.604Z,55.03
2019-05-22T03:30:37.027Z,54.65
2019-05-22T03:33:08.201Z,54.70
2019-05-22T03:35:49.520Z,53.92
2019-05-22T03:38:20.483Z,53.13
2019-05-22T03:40:52.104Z,51.00
2019-05-22T03:43:29.703Z,50.98
2019-05-22T03:46:02.960Z,49.50
2019-05-22T03:48:37.605Z,50.12
2019-05-22T03:51:10.006Z,50.00
2019-05-22T03:53:40.867Z,50.08
2019-05-22T03:56:11.255Z,50.10
2019-05-22T03:58:41.377Z,51.53
2019-05-22T04:01:11.375Z,50.20
2019-05-22T04:03:40.974Z,50.08
2019-05-22T04:06:12.307Z,50.33
2019-05-22T04:08:41.814Z,49.77
2019-05-22T04:11:13.391Z,50.50
2019-05-22T04:13:42.997Z,50.33
2019-05-22T04:16:17.258Z,48.78
2019-05-22T04:18:47.217Z,49.23
2019-05-22T04:21:18.383Z,49.98
2019-05-22T04:23:47.817Z,50.50
2019-05-22T04:26:17.433Z,49.93
2019-05-22T04:28:50.027Z,49.35
2019-05-22T04:31:20.218Z,48.98
2019-05-22T04:33:49.920Z,51.70
2019-05-22T04:36:21.379Z,50.12
2019-05-22T04:38:52.272Z,48.65
2019-05-22T04:41:21.980Z,49.40
2019-05-22T04:43:51.492Z,49.27
2019-05-22T04:46:21.580Z,48.28
2019-05-22T04:48:54.280Z,49.98
2019-05-22T04:51:27.212Z,49.83
2019-05-22T04:54:00.198Z,52.67
2019-05-22T04:59:11.670Z,53.00
2019-05-22T05:01:41.136Z,54.03
2019-05-22T05:04:11.196Z,52.23
2019-05-22T05:06:41.137Z,51.18
2019-05-22T05:09:10.809Z,48.95
2019-05-22T05:11:42.412Z,50.52
2019-05-22T05:14:11.939Z,49.80
2019-05-22T05:16:42.087Z,48.52
2019-05-22T05:19:12.902Z,48.13
2019-05-22T05:21:42.398Z,48.05
2019-05-22T05:24:12.204Z,48.02
2019-05-22T05:26:42.311Z,48.38
2019-05-22T05:29:31.188Z,47.73
2019-05-22T05:32:01.333Z,46.77
2019-05-22T05:34:33.829Z,47.62
2019-05-22T05:37:05.596Z,47.98
2019-05-22T05:39:39.797Z,47.13
2019-05-22T05:42:09.267Z,47.13
2019-05-22T05:44:38.787Z,49.95
2019-05-22T05:47:09.185Z,49.10
2019-05-22T05:49:39.167Z,49.10
2019-05-22T05:52:10.508Z,49.58
2019-05-22T05:54:41.644Z,47.83
2019-05-22T05:57:37.910Z,47.53
2019-05-22T06:00:14.175Z,48.02
2019-05-22T06:02:56.138Z,47.85
2019-05-22T06:05:16.388Z,46.80
2019-05-22T06:07:46.005Z,48.02
2019-05-22T06:10:28.194Z,46.92
2019-05-22T06:12:58.650Z,47.40
2019-05-22T06:15:48.153Z,46.37
2019-05-22T06:18:34.631Z,45.40
2019-05-22T06:21:06.056Z,45.45
2019-05-22T06:23:42.204Z,47.53
2019-05-22T06:26:15.310Z,46.45
2019-05-22T06:28:47.026Z,46.83
2019-05-22T06:31:36.347Z,45.50
2019-05-22T06:34:05.961Z,46.83
2019-05-22T06:36:35.651Z,47.05
2019-05-22T06:39:08.592Z,46.08
2019-05-22T06:41:38.529Z,48.63
2019-05-22T06:44:32.706Z,48.78
2019-05-22T06:47:02.986Z,49.38
2019-05-22T06:49:35.543Z,50.20
2019-05-22T06:52:06.938Z,51.02
2019-05-22T06:54:38.443Z,51.42
2019-05-22T06:57:11.609Z,50.98
2019-05-22T06:59:41.872Z,50.38
2019-05-22T07:02:13.947Z,51.00
2019-05-22T07:04:43.949Z,51.10
2019-05-22T07:07:14.176Z,51.28
2019-05-22T07:09:45.633Z,49.30
2019-05-22T07:12:18.141Z,49.15
2019-05-22T07:15:11.244Z,50.75
2019-05-22T07:17:41.884Z,49.58
2019-05-22T07:20:13.323Z,50.95
2019-05-22T07:22:44.204Z,49.42
2019-05-22T07:25:14.307Z,50.60
2019-05-22T07:27:50.015Z,49.35
2019-05-22T07:30:17.571Z,49.63
2019-05-22T07:32:51.277Z,49.65
2019-05-22T07:35:21.192Z,49.90
2019-05-22T07:37:52.977Z,50.08
2019-05-22T07:40:22.943Z,48.05
2019-05-22T07:42:53.434Z,49.35
2019-05-22T07:45:28.211Z,51.20
2019-05-22T07:47:59.765Z,47.50
2019-05-22T07:50:32.920Z,49.65
2019-05-22T07:53:04.460Z,48.83
2019-05-22T07:55:34.449Z,49.08
2019-05-22T07:58:09.112Z,48.87
2019-05-22T08:00:45.366Z,46.98
2019-05-22T08:03:15.258Z,46.88
2019-05-22T08:05:52.856Z,45.85
2019-05-22T08:08:24.244Z,47.25
2019-05-22T08:10:54.594Z,46.95
2019-05-22T08:13:24.585Z,46.77
2019-05-22T08:15:56.201Z,47.98
2019-05-22T08:18:27.016Z,46.55
2019-05-22T08:20:58.143Z,46.65
2019-05-22T08:23:28.385Z,46.85
2019-05-22T08:26:01.529Z,44.98
2019-05-22T08:28:34.829Z,46.37
2019-05-22T08:31:06.492Z,45.67
2019-05-22T08:33:38.608Z,44.83
2019-05-22T08:36:09.222Z,45.65
2019-05-22T08:38:42.919Z,45.33
2019-05-22T08:41:20.334Z,44.00
2019-05-22T08:44:13.545Z,45.50
2019-05-22T08:48:54.196Z,41.65
2019-05-22T08:51:25.368Z,41.68
2019-05-22T08:53:55.205Z,38.20
2019-05-22T08:56:25.065Z,37.20
2019-05-22T08:58:57.986Z,40.08
2019-05-22T09:01:27.583Z,39.25
2019-05-22T09:03:57.091Z,36.20
2019-05-22T09:06:26.573Z,38.13
2019-05-22T09:08:58.604Z,41.18
2019-05-22T09:11:28.225Z,35.28
2019-05-22T09:13:57.654Z,33.33
2019-05-22T09:16:31.705Z,31.37
2019-05-22T09:19:01.264Z,29.02
2019-05-22T09:21:40.736Z,29.40
2019-05-22T09:24:24.876Z,23.75
2019-05-22T09:26:51.372Z,22.05
2019-05-22T09:29:27.143Z,18.62
2019-05-22T09:31:59.559Z,17.10
2019-05-22T09:34:32.308Z,17.07
2019-05-22T09:37:01.826Z,18.95
2019-05-22T09:39:33.016Z,18.48
2019-05-22T09:42:02.528Z,19.48
2019-05-22T09:44:32.082Z,18.00
2019-05-22T09:47:05.782Z,17.85
2019-05-22T09:49:35.460Z,18.77
2019-05-22T09:52:09.301Z,18.82
2019-05-22T09:54:39.450Z,21.05
2019-05-22T09:57:12.897Z,20.77
2019-05-22T09:59:42.437Z,19.48
2019-05-22T10:02:13.310Z,10.95
2019-05-22T10:04:47.195Z,11.38
2019-05-22T10:07:16.306Z,11.08
2019-05-22T10:09:46.106Z,10.50
2019-05-22T10:12:16.413Z,7.70
2019-05-22T10:14:46.019Z,7.37
2019-05-22T10:17:17.655Z,8.40
2019-05-22T10:19:49.173Z,9.75
2019-05-22T10:22:21.156Z,5.87
2019-05-22T10:24:52.139Z,6.70
2019-05-22T10:27:22.190Z,6.62
2019-05-22T10:29:52.633Z,6.12
2019-05-22T10:32:22.279Z,5.85
2019-05-22T10:34:51.861Z,6.72
2019-05-22T10:37:21.804Z,6.35
2019-05-22T10:39:51.233Z,7.70
2019-05-22T10:42:24.990Z,7.35
2019-05-22T10:44:56.144Z,7.65
2019-05-22T10:47:27.091Z,6.75
2019-05-22T10:49:58.014Z,6.28
2019-05-22T10:52:33.207Z,7.03
2019-05-22T10:55:08.132Z,7.67
2019-05-22T10:57:40.809Z,7.15
2019-05-22T11:00:10.650Z,7.17
2019-05-22T11:02:44.950Z,8.60
2019-05-22T11:05:16.053Z,8.87
2019-05-22T11:07:45.842Z,8.00
2019-05-22T11:10:17.221Z,8.38
2019-05-22T11:12:47.195Z,8.65
2019-05-22T11:15:17.655Z,8.38
2019-05-22T11:17:47.274Z,8.43
2019-05-22T11:20:16.961Z,8.93
2019-05-22T11:22:46.603Z,8.00
2019-05-22T11:25:20.140Z,8.60
2019-05-22T11:27:53.437Z,9.40
2019-05-22T11:30:25.572Z,9.55
2019-05-22T11:32:58.986Z,8.93
2019-05-22T11:35:28.767Z,8.15
2019-05-22T11:38:01.736Z,8.33
2019-05-22T11:40:36.121Z,8.75
2019-05-22T11:43:05.405Z,9.60
2019-05-22T11:45:35.366Z,9.10
2019-05-22T11:48:06.569Z,8.10
2019-05-22T11:50:36.933Z,7.30
2019-05-22T11:53:10.077Z,8.10
2019-05-22T11:55:46.102Z,8.10
2019-05-22T11:58:16.186Z,8.50
2019-05-22T12:00:46.712Z,8.28
2019-05-22T12:03:16.760Z,8.00
2019-05-22T12:08:16.504Z,8.75
2019-05-22T12:10:57.528Z,8.30
2019-05-22T12:13:22.430Z,8.55
2019-05-22T12:15:56.309Z,8.30
2019-05-22T12:18:28.422Z,7.95
2019-05-22T12:20:58.093Z,8.05
2019-05-22T12:23:28.937Z,8.38
2019-05-22T12:25:59.352Z,9.35
2019-05-22T12:28:30.395Z,9.20
2019-05-22T12:31:00.201Z,9.70
2019-05-22T12:33:30.021Z,8.85
2019-05-22T12:38:32.864Z,7.92
2019-05-22T12:41:03.988Z,8.35
2019-05-22T12:43:35.079Z,9.15
2019-05-22T12:46:05.823Z,9.93
2019-05-22T12:48:36.552Z,8.95
2019-05-22T12:51:06.667Z,8.65
2019-05-22T12:53:39.263Z,9.78
2019-05-22T12:56:12.074Z,9.15
2019-05-22T12:58:41.993Z,8.53
2019-05-22T13:01:12.107Z,9.30
2019-05-22T13:03:42.070Z,10.23
2019-05-22T13:06:14.710Z,10.28
2019-05-22T13:08:45.165Z,10.88
2019-05-22T13:11:16.963Z,9.58
2019-05-22T13:13:48.142Z,10.00
2019-05-22T13:16:17.804Z,9.60
2019-05-22T13:18:50.194Z,10.30
2019-05-22T13:21:23.152Z,9.03
2019-05-22T13:23:53.522Z,8.85
2019-05-22T13:26:26.942Z,11.30
2019-05-22T13:28:57.697Z,11.38
2019-05-22T13:31:27.355Z,10.00
2019-05-22T13:34:09.041Z,9.33
2019-05-22T13:36:40.737Z,10.20
2019-05-22T13:39:11.982Z,10.90
2019-05-22T13:41:41.715Z,10.05
2019-05-22T13:44:12.565Z,9.33
2019-05-22T13:46:42.507Z,10.32
2019-05-22T13:49:22.133Z,9.50
2019-05-22T13:51:54.908Z,9.53
2019-05-22T13:54:25.442Z,9.53
2019-05-22T13:56:55.657Z,9.23
2019-05-22T13:59:25.701Z,7.65
2019-05-22T14:01:58.475Z,7.80
2019-05-22T14:04:27.996Z,6.60
2019-05-22T14:06:58.034Z,6.33
2019-05-22T14:09:28.371Z,6.30
2019-05-22T14:11:58.395Z,6.90
2019-05-22T14:14:28.268Z,6.45
2019-05-22T14:16:58.237Z,6.65
2019-05-22T14:19:27.916Z,7.80
2019-05-22T14:22:00.579Z,6.78
2019-05-22T14:24:30.385Z,7.42
2019-05-22T14:27:01.183Z,6.30
2019-05-22T14:29:32.853Z,6.92
2019-05-22T14:32:05.491Z,7.55
2019-05-22T14:34:37.942Z,8.73
2019-05-22T14:37:15.813Z,7.72
2019-05-22T14:39:45.886Z,6.87
2019-05-22T14:42:17.245Z,7.47
2019-05-22T14:44:47.178Z,8.50
2019-05-22T14:47:17.683Z,6.10
2019-05-22T14:49:48.690Z,6.58
2019-05-22T14:52:20.223Z,7.60
2019-05-22T14:54:53.327Z,7.67
2019-05-22T14:57:26.222Z,7.33
2019-05-22T14:59:56.900Z,7.33
2019-05-22T15:02:27.003Z,7.33
2019-05-22T15:04:57.406Z,7.05
2019-05-22T15:07:26.999Z,7.33
2019-05-22T15:09:56.634Z,7.30
2019-05-22T15:12:38.678Z,7.50
2019-05-22T15:15:11.163Z,8.03
2019-05-22T15:17:41.311Z,7.33
2019-05-22T15:20:16.918Z,6.78
2019-05-22T15:22:47.040Z,7.37
2019-05-22T15:25:22.251Z,7.25
2019-05-22T15:28:18.876Z,7.58
2019-05-22T15:30:48.956Z,7.65
2019-05-22T15:33:18.753Z,6.85
2019-05-22T15:35:51.336Z,7.53
2019-05-22T15:38:21.508Z,7.65
2019-05-22T15:40:53.464Z,7.25
2019-05-22T15:43:25.399Z,7.80
2019-05-22T15:45:57.437Z,6.70
2019-05-22T15:48:31.240Z,7.17
2019-05-22T15:51:06.689Z,7.47
2019-05-22T15:53:41.678Z,6.95
2019-05-22T15:56:10.573Z,7.83
2019-05-22T15:58:42.776Z,7.58
2019-05-22T16:01:15.276Z,7.05
2019-05-22T16:03:53.032Z,6.80
2019-05-22T16:06:25.294Z,7.75
2019-05-22T16:09:05.254Z,8.30
2019-05-22T16:11:40.211Z,8.33
2019-05-22T16:14:13.081Z,7.20
2019-05-22T16:16:43.259Z,7.78
2019-05-22T16:19:14.141Z,9.03
2019-05-22T16:21:48.485Z,8.23
2019-05-22T16:24:19.259Z,7.78
2019-05-22T16:26:49.152Z,7.53
2019-05-22T16:29:20.971Z,7.80
2019-05-22T16:31:51.889Z,9.18
2019-05-22T16:34:21.988Z,7.40
2019-05-22T16:36:53.086Z,7.58
2019-05-22T16:39:23.859Z,7.80
2019-05-22T16:41:54.173Z,7.28
2019-05-22T16:44:24.474Z,7.72
2019-05-22T16:46:54.309Z,7.67
2019-05-22T16:49:24.447Z,7.78
2019-05-22T16:51:59.585Z,7.62
2019-05-22T16:54:30.917Z,7.55
2019-05-22T16:57:01.265Z,7.08
2019-05-22T16:59:31.724Z,8.20
2019-05-22T17:02:01.735Z,8.08
2019-05-22T17:04:31.575Z,6.65
2019-05-22T17:07:05.498Z,6.97
2019-05-22T17:09:35.182Z,6.83
2019-05-22T17:12:09.849Z,7.00
2019-05-22T17:14:43.880Z,8.63
2019-05-22T17:17:18.271Z,7.33
2019-05-22T17:19:48.807Z,7.30
2019-05-22T17:22:18.735Z,7.58
2019-05-22T17:27:24.615Z,7.53
2019-05-22T17:30:01.100Z,6.92
2019-05-22T17:32:31.384Z,6.58
2019-05-22T17:35:01.631Z,6.60
2019-05-22T17:37:32.679Z,6.70
2019-05-22T17:40:03.661Z,6.90
2019-05-22T17:42:34.207Z,6.78
2019-05-22T17:45:06.608Z,7.30
2019-05-22T17:47:36.586Z,7.83
2019-05-22T17:50:26.160Z,7.08
2019-05-22T17:55:35.756Z,7.30
2019-05-22T17:58:06.918Z,8.48
2019-05-22T18:00:42.239Z,7.58
2019-05-22T18:03:12.361Z,7.87
2019-05-22T18:05:42.462Z,8.15
2019-05-22T18:08:16.624Z,7.33
2019-05-22T18:10:49.942Z,6.90
2019-05-22T18:13:25.573Z,6.33
2019-05-22T18:16:08.152Z,6.75
2019-05-22T18:18:43.168Z,6.33
2019-05-22T18:21:14.137Z,6.60
2019-05-22T18:23:46.993Z,6.20
2019-05-22T18:26:16.741Z,6.92
2019-05-22T18:28:46.519Z,7.10
2019-05-22T18:31:17.091Z,8.25
2019-05-22T18:33:46.603Z,8.05
2019-05-22T18:36:16.248Z,8.60
2019-05-22T18:38:45.723Z,8.58
2019-05-22T18:41:15.708Z,7.95
2019-05-22T18:43:45.325Z,9.48
2019-05-22T18:46:14.892Z,8.15
2019-05-22T18:48:44.458Z,8.25
2019-05-22T18:51:13.888Z,8.78
2019-05-22T18:53:43.371Z,8.73
2019-05-22T18:56:13.377Z,8.18
2019-05-22T18:58:43.527Z,8.35
2019-05-22T19:01:16.231Z,8.58
2019-05-22T19:03:44.475Z,9.10
2019-05-22T19:06:14.535Z,7.85
2019-05-22T19:08:46.096Z,7.30
2019-05-22T19:14:13.491Z,6.95
2019-05-22T19:16:45.770Z,7.12
2019-05-22T19:19:17.356Z,7.40
2019-05-22T19:21:47.074Z,7.25
2019-05-22T19:24:18.687Z,5.85
2019-05-22T19:26:48.525Z,5.95
2019-05-22T19:31:55.914Z,6.33
2019-05-22T19:34:26.153Z,6.78
2019-05-22T19:36:57.567Z,6.92
2019-05-22T19:39:29.254Z,7.60
2019-05-22T19:42:02.923Z,7.20
2019-05-22T19:44:30.832Z,8.00
2019-05-22T19:47:00.767Z,7.75
2019-05-22T19:49:32.077Z,8.00
2019-05-22T19:52:02.107Z,8.13
2019-05-22T19:54:35.719Z,8.53
2019-05-22T19:57:09.221Z,8.98
2019-05-22T19:59:44.993Z,8.55
2019-05-22T20:02:16.250Z,8.93
2019-05-22T20:04:46.940Z,9.85
2019-05-22T20:07:46.540Z,9.50
2019-05-22T20:10:16.998Z,9.98
2019-05-22T20:12:54.008Z,10.43
2019-05-22T20:15:26.418Z,12.37
2019-05-22T20:17:59.281Z,12.63
2019-05-22T20:20:30.160Z,10.93
2019-05-22T20:23:00.108Z,12.00
2019-05-22T20:25:31.719Z,12.10
2019-05-22T20:28:03.678Z,11.40
2019-05-22T20:30:43.966Z,11.48
2019-05-22T20:33:14.938Z,11.73
2019-05-22T20:38:38.821Z,12.25
2019-05-22T20:41:09.618Z,12.40
2019-05-22T20:43:39.883Z,12.98
2019-05-22T20:46:11.563Z,12.58
2019-05-22T20:51:21.007Z,13.30
2019-05-22T20:53:54.670Z,14.45
2019-05-22T20:56:25.519Z,14.73
2019-05-22T20:58:56.792Z,14.87
2019-05-22T21:01:27.131Z,15.43
2019-05-22T21:03:59.702Z,13.95
2019-05-22T21:06:31.853Z,14.75
2019-05-22T21:09:01.975Z,14.58
2019-05-22T21:11:33.545Z,15.35
2019-05-22T21:14:04.622Z,15.00
2019-05-22T21:16:34.947Z,14.05
2019-05-22T21:19:04.707Z,14.75
2019-05-22T21:21:34.624Z,14.35
2019-05-22T21:24:11.541Z,15.45
2019-05-22T21:26:37.212Z,15.75
2019-05-22T21:29:07.307Z,15.60
2019-05-22T21:31:37.211Z,16.77
2019-05-22T21:34:07.382Z,17.60
2019-05-22T21:36:38.882Z,16.80
2019-05-22T21:39:16.382Z,18.05
2019-05-22T21:41:46.337Z,19.10
2019-05-22T21:44:16.917Z,18.67
2019-05-22T21:46:47.133Z,19.65
2019-05-22T21:49:19.058Z,18.60
2019-05-22T21:51:48.727Z,19.90
2019-05-22T21:54:19.696Z,20.55
2019-05-22T21:56:49.916Z,20.02
2019-05-22T21:59:19.916Z,22.22
2019-05-22T22:01:58.765Z,21.33
2019-05-22T22:04:39.695Z,20.17
2019-05-22T22:07:09.645Z,20.52
2019-05-22T22:09:40.498Z,21.73
2019-05-22T22:12:10.668Z,21.80
2019-05-22T22:17:38.219Z,21.57
2019-05-22T22:22:49.613Z,20.35
2019-05-22T22:25:21.585Z,23.52
2019-05-22T22:27:54.413Z,25.17
2019-05-22T22:30:28.660Z,26.10
2019-05-22T22:33:00.560Z,25.67
2019-05-22T22:35:30.421Z,29.67
2019-05-22T22:38:00.594Z,29.63
2019-05-22T22:40:30.430Z,30.80
2019-05-22T22:46:11.372Z,24.92
2019-05-22T22:49:10.989Z,24.98
2019-05-22T22:51:58.734Z,22.45
2019-05-22T22:55:13.927Z,22.85
2019-05-22T22:57:56.751Z,24.12
2019-05-22T23:03:24.825Z,23.70
2019-05-22T23:06:06.432Z,23.60
2019-05-22T23:08:37.745Z,22.73
2019-05-22T23:11:09.277Z,23.35
2019-05-22T23:13:52.267Z,23.60
2019-05-22T23:16:23.581Z,21.65
2019-05-22T23:18:59.125Z,22.75
2019-05-22T23:21:28.885Z,24.20
2019-05-22T23:23:57.506Z,23.62
2019-05-22T23:26:30.771Z,23.30
2019-05-22T23:29:00.186Z,23.60
2019-05-22T23:31:31.591Z,24.00
2019-05-22T23:34:03.233Z,24.05
2019-05-22T23:36:36.133Z,25.75
2019-05-22T23:39:12.773Z,23.40
2019-05-22T23:41:43.313Z,23.80
2019-05-22T23:44:14.429Z,24.98
2019-05-22T23:46:44.784Z,24.35
2019-05-22T23:49:15.746Z,25.08
2019-05-22T23:51:45.589Z,27.07
2019-05-22T23:54:16.986Z,25.90
2019-05-22T23:56:46.785Z,26.52
2019-05-22T23:59:17.793Z,26.93
